Time;durP1;ratioP1;P1;durP2;ratioP2;P2;SDS_P1;SDS_P2;PMS_P1;PMS_P2;Temp;Humidity;BMP_temperature;BMP_pressure;BME280_temperature;BME280_humidity;BME280_pressure;Samples;Min_cycle;Max_cycle;Signal;HPM_P1;HPM_P2
2023/10/06 00:01:53;;;;;;;10.23;8.93;;;23.30;99.90;;;;;;6277440;27;82920;-70
2023/10/06 00:04:55;;;;;;;9.73;8.68;;;23.30;99.90;;;;;;6276492;27;84019;-71
2023/10/06 00:07:57;;;;;;;8.73;7.80;;;23.30;99.90;;;;;;6279720;27;83785;-70
2023/10/06 00:11:10;;;;;;;9.93;8.57;;;23.30;99.90;;;;;;6276484;27;83954;-70
2023/10/06 00:14:19;;;;;;;8.82;7.93;;;23.30;99.90;;;;;;6272285;27;84107;-70
2023/10/06 00:17:28;;;;;;;9.45;7.70;;;23.30;99.90;;;;;;6279095;27;84103;-70
2023/10/06 00:20:39;;;;;;;8.68;7.65;;;23.20;99.80;;;;;;6279545;27;84063;-71
2023/10/06 00:23:43;;;;;;;9.80;7.78;;;23.20;99.40;;;;;;6278176;27;84067;-70
2023/10/06 00:26:45;;;;;;;9.77;7.57;;;23.20;99.10;;;;;;6276046;27;83222;-70
2023/10/06 00:29:49;;;;;;;9.98;7.70;;;23.20;98.80;;;;;;6277874;27;84014;-69
2023/10/06 00:32:54;;;;;;;9.07;7.32;;;23.20;98.80;;;;;;6279184;27;83393;-70
2023/10/06 00:35:56;;;;;;;10.20;7.50;;;23.20;99.30;;;;;;6284241;27;84013;-70
2023/10/06 00:38:58;;;;;;;9.00;7.65;;;23.20;99.70;;;;;;6284630;27;82951;-69
2023/10/06 00:42:04;;;;;;;8.85;7.25;;;23.10;99.90;;;;;;6290821;27;85039;-69
2023/10/06 00:45:08;;;;;;;8.30;7.25;;;23.10;99.90;;;;;;6283213;27;84139;-70
2023/10/06 00:48:14;;;;;;;8.60;7.70;;;23.20;99.90;;;;;;6282762;27;84096;-70
2023/10/06 00:51:19;;;;;;;8.73;7.72;;;23.10;99.90;;;;;;6275096;27;84117;-70
2023/10/06 00:54:25;;;;;;;8.70;7.78;;;23.10;99.90;;;;;;6278914;27;82910;-70
2023/10/06 00:57:27;;;;;;;8.57;7.68;;;23.10;99.90;;;;;;6283071;27;82290;-70
2023/10/06 01:00:31;;;;;;;8.57;7.60;;;23.10;99.90;;;;;;6275987;27;82750;-69
2023/10/06 01:03:39;;;;;;;8.23;7.43;;;23.10;99.90;;;;;;6279720;27;83287;-70
2023/10/06 01:06:42;;;;;;;8.70;7.80;;;23.10;99.90;;;;;;6278383;27;83937;-70
2023/10/06 01:10:06;;;;;;;8.52;7.63;;;23.10;99.90;;;;;;6278773;27;85606;-70
2023/10/06 01:13:12;;;;;;;8.25;7.45;;;23.10;99.90;;;;;;6278036;27;85132;-70
2023/10/06 01:16:15;;;;;;;8.43;7.53;;;23.10;99.90;;;;;;6278655;27;83614;-70
2023/10/06 01:19:26;;;;;;;8.65;7.78;;;23.10;99.90;;;;;;6281293;27;84723;-70
2023/10/06 01:22:30;;;;;;;9.50;8.07;;;23.10;99.90;;;;;;6279643;27;84564;-70
2023/10/06 01:25:34;;;;;;;8.65;7.75;;;23.10;99.90;;;;;;6281824;27;84401;-70
2023/10/06 01:28:37;;;;;;;8.68;7.75;;;23.10;99.90;;;;;;6283134;27;84467;-70
2023/10/06 01:31:40;;;;;;;8.35;7.55;;;23.10;99.90;;;;;;6274642;27;83841;-70
2023/10/06 01:34:44;;;;;;;8.40;7.55;;;23.10;99.90;;;;;;6277409;27;83318;-70
2023/10/06 01:37:49;;;;;;;8.45;7.57;;;23.10;99.90;;;;;;6276451;27;82884;-69
2023/10/06 01:40:53;;;;;;;8.40;7.55;;;23.10;99.90;;;;;;6275514;27;82554;-70
2023/10/06 01:43:55;;;;;;;9.98;8.02;;;23.10;99.90;;;;;;6277631;27;84909;-70
2023/10/06 01:46:57;;;;;;;8.60;7.80;;;23.10;99.90;;;;;;6273958;27;82915;-70
2023/10/06 01:49:59;;;;;;;9.55;7.70;;;23.10;99.90;;;;;;6282590;27;84058;-68
2023/10/06 01:53:06;;;;;;;9.57;7.90;;;23.10;99.90;;;;;;6269433;27;82973;-69
2023/10/06 01:56:08;;;;;;;9.43;8.40;;;23.10;99.90;;;;;;6271933;27;84039;-69
2023/10/06 01:59:10;;;;;;;8.55;7.65;;;23.10;99.90;;;;;;6271856;27;84044;-70
2023/10/06 02:02:13;;;;;;;8.48;7.57;;;23.10;99.90;;;;;;6283515;27;83095;-69
2023/10/06 02:05:15;;;;;;;8.80;7.78;;;23.10;99.90;;;;;;6285341;27;83460;-69
2023/10/06 02:08:23;;;;;;;8.60;7.70;;;23.10;99.90;;;;;;6296441;27;83968;-70
2023/10/06 02:11:30;;;;;;;8.95;7.45;;;23.10;99.90;;;;;;6286559;27;82995;-70
2023/10/06 02:14:32;;;;;;;8.10;7.30;;;23.10;99.90;;;;;;6285072;27;85217;-70
2023/10/06 02:17:34;;;;;;;8.30;7.40;;;23.10;99.90;;;;;;6284154;27;84425;-70
2023/10/06 02:20:36;;;;;;;8.00;7.20;;;23.10;99.90;;;;;;6284708;27;84072;-70
2023/10/06 02:23:41;;;;;;;10.65;7.90;;;23.10;99.90;;;;;;6283574;27;84040;-70
2023/10/06 02:26:47;;;;;;;9.23;7.85;;;23.10;99.90;;;;;;6270996;27;84174;-70
2023/10/06 02:29:50;;;;;;;8.07;7.25;;;23.00;99.90;;;;;;6272665;27;83958;-69
2023/10/06 02:32:52;;;;;;;8.25;7.15;;;23.00;99.90;;;;;;6282577;27;84292;-69
2023/10/06 02:35:55;;;;;;;8.25;7.25;;;23.00;99.90;;;;;;6283538;27;84126;-70
2023/10/06 02:39:05;;;;;;;8.25;7.18;;;23.10;99.90;;;;;;6282169;27;84019;-70
2023/10/06 02:42:13;;;;;;;7.68;6.95;;;23.00;99.90;;;;;;6283420;27;84182;-70
2023/10/06 02:45:20;;;;;;;8.00;7.20;;;23.00;99.90;;;;;;6282750;27;85374;-69
2023/10/06 02:48:25;;;;;;;7.95;6.80;;;23.00;99.90;;;;;;6279551;27;84467;-70
2023/10/06 02:51:32;;;;;;;7.97;7.18;;;23.00;99.90;;;;;;6282315;27;84292;-70
2023/10/06 02:54:41;;;;;;;7.88;7.07;;;23.00;99.90;;;;;;6281447;27;83989;-70
2023/10/06 02:57:51;;;;;;;8.38;7.00;;;23.00;99.90;;;;;;6282360;27;83907;-70
2023/10/06 03:00:55;;;;;;;9.05;7.70;;;23.00;99.90;;;;;;6280445;27;84130;-69
2023/10/06 03:04:06;;;;;;;8.70;7.55;;;23.00;99.90;;;;;;6283084;27;82983;-70
2023/10/06 03:07:14;;;;;;;8.23;7.10;;;23.00;99.90;;;;;;6282681;27;83152;-70
2023/10/06 03:10:18;;;;;;;8.13;7.20;;;23.00;99.90;;;;;;6272764;27;84754;-70
2023/10/06 03:13:24;;;;;;;8.63;7.30;;;23.00;99.90;;;;;;6270061;27;82954;-69
2023/10/06 03:16:26;;;;;;;8.48;7.53;;;23.00;99.90;;;;;;6268956;27;85070;-69
2023/10/06 03:19:32;;;;;;;7.43;6.68;;;22.90;99.90;;;;;;6282749;27;84021;-70
2023/10/06 03:22:37;;;;;;;8.30;7.32;;;22.90;99.90;;;;;;6282805;27;84331;-70
2023/10/06 03:25:41;;;;;;;7.18;6.47;;;22.90;99.90;;;;;;6283262;27;84050;-68
2023/10/06 03:28:43;;;;;;;8.07;7.25;;;22.90;99.90;;;;;;6282251;27;83696;-69
2023/10/06 03:31:45;;;;;;;8.80;7.68;;;22.90;99.90;;;;;;6281348;27;84242;-69
2023/10/06 03:34:48;;;;;;;7.72;6.97;;;22.90;99.90;;;;;;6270543;27;83955;-69
2023/10/06 03:37:52;;;;;;;7.57;6.75;;;22.90;99.90;;;;;;6283895;27;84126;-69
2023/10/06 03:41:09;;;;;;;7.93;7.13;;;22.90;99.90;;;;;;6282848;27;83996;-69
2023/10/06 03:44:12;;;;;;;7.60;6.75;;;22.90;99.90;;;;;;6270000;27;84206;-68
2023/10/06 03:47:15;;;;;;;7.63;6.82;;;22.90;99.90;;;;;;6268001;27;84875;-68
2023/10/06 03:50:19;;;;;;;8.13;7.20;;;22.90;99.90;;;;;;6281998;27;84308;-68
2023/10/06 03:53:21;;;;;;;7.18;6.47;;;22.90;99.90;;;;;;6282745;27;82889;-69
2023/10/06 03:56:25;;;;;;;7.32;6.63;;;22.90;99.90;;;;;;6274177;27;84029;-69
2023/10/06 03:59:27;;;;;;;7.63;6.85;;;22.90;99.90;;;;;;6278543;27;84330;-69
2023/10/06 04:02:38;;;;;;;7.38;6.68;;;22.80;99.90;;;;;;6282676;27;82871;-68
2023/10/06 04:05:41;;;;;;;7.70;6.50;;;22.90;99.90;;;;;;6275898;27;84169;-68
2023/10/06 04:08:45;;;;;;;7.88;6.90;;;22.80;99.90;;;;;;6269720;27;82396;-68
2023/10/06 04:11:48;;;;;;;7.40;6.60;;;22.80;99.90;;;;;;6279044;27;83791;-68
2023/10/06 04:14:51;;;;;;;7.45;6.70;;;22.80;99.90;;;;;;6276092;27;84515;-68
2023/10/06 04:17:53;;;;;;;7.18;6.43;;;22.80;99.90;;;;;;6286625;27;84637;-69
2023/10/06 04:20:56;;;;;;;7.53;6.72;;;22.80;99.90;;;;;;6279804;27;84074;-69
2023/10/06 04:24:00;;;;;;;7.30;6.40;;;22.80;99.90;;;;;;6278379;27;84075;-68
2023/10/06 04:27:05;;;;;;;7.30;6.50;;;22.80;99.90;;;;;;6285808;27;84126;-69
2023/10/06 04:30:12;;;;;;;6.97;6.15;;;22.90;99.90;;;;;;6286404;27;84110;-69
2023/10/06 04:33:18;;;;;;;6.90;6.20;;;22.80;99.90;;;;;;6286999;27;84127;-69
2023/10/06 04:36:23;;;;;;;7.05;6.35;;;22.80;99.90;;;;;;6286918;27;84094;-69
2023/10/06 04:39:26;;;;;;;8.00;6.88;;;22.80;99.90;;;;;;6281572;27;83425;-69
2023/10/06 04:42:31;;;;;;;7.45;6.50;;;22.80;99.90;;;;;;6286403;27;84018;-70
2023/10/06 04:45:33;;;;;;;8.27;6.60;;;22.80;99.90;;;;;;6286027;27;82939;-71
2023/10/06 04:48:35;;;;;;;7.57;6.68;;;22.80;99.90;;;;;;6283533;27;84820;-70
2023/10/06 04:51:38;;;;;;;7.43;6.72;;;22.80;99.90;;;;;;6285453;27;83984;-70
2023/10/06 04:54:39;;;;;;;7.43;6.57;;;22.80;99.90;;;;;;6284861;27;83019;-70
2023/10/06 04:57:43;;;;;;;8.45;7.22;;;22.90;99.90;;;;;;6285062;27;84107;-69
2023/10/06 05:00:49;;;;;;;8.38;7.38;;;22.80;99.90;;;;;;6285132;27;84086;-70
2023/10/06 05:03:51;;;;;;;8.18;7.30;;;22.90;99.90;;;;;;6286209;27;84117;-70
2023/10/06 05:06:55;;;;;;;8.13;7.32;;;23.00;99.90;;;;;;6286912;27;84162;-70
2023/10/06 05:09:59;;;;;;;8.00;7.20;;;23.00;99.90;;;;;;6279866;27;83214;-70
2023/10/06 05:13:05;;;;;;;7.93;7.15;;;23.00;99.90;;;;;;6282819;27;84031;-70
2023/10/06 05:16:11;;;;;;;8.32;7.53;;;23.00;99.90;;;;;;6289498;27;83807;-70
2023/10/06 05:19:14;;;;;;;8.13;7.03;;;23.00;99.90;;;;;;6283827;27;83648;-71
2023/10/06 05:22:16;;;;;;;7.75;6.95;;;23.00;99.90;;;;;;6284741;27;85959;-71
2023/10/06 05:25:19;;;;;;;8.63;6.97;;;23.00;99.90;;;;;;6285682;27;82887;-71
2023/10/06 05:28:22;;;;;;;7.90;7.10;;;23.00;99.90;;;;;;6284419;27;84333;-69
2023/10/06 05:31:25;;;;;;;8.15;7.35;;;23.00;99.90;;;;;;6281351;27;84098;-69
2023/10/06 05:34:29;;;;;;;8.85;7.32;;;23.00;99.90;;;;;;6284999;27;83955;-69
2023/10/06 05:37:32;;;;;;;8.48;7.15;;;23.00;99.90;;;;;;6277906;27;84030;-69
2023/10/06 05:40:34;;;;;;;8.07;7.28;;;23.00;99.90;;;;;;6278868;27;83306;-70
2023/10/06 05:43:37;;;;;;;8.30;6.97;;;23.00;99.90;;;;;;6278429;27;84564;-69
2023/10/06 05:46:41;;;;;;;8.43;7.18;;;23.00;99.90;;;;;;6285956;27;84025;-69
2023/10/06 05:49:47;;;;;;;9.15;7.93;;;23.00;99.90;;;;;;6280890;27;83643;-70
2023/10/06 05:52:53;;;;;;;8.85;7.53;;;23.00;99.90;;;;;;6284546;27;84229;-70
2023/10/06 05:55:55;;;;;;;8.40;7.50;;;23.00;99.90;;;;;;6273803;27;84386;-72
2023/10/06 05:58:58;;;;;;;8.25;7.45;;;23.00;99.90;;;;;;6282125;27;82880;-72
2023/10/06 06:02:02;;;;;;;8.32;7.43;;;23.00;99.90;;;;;;6273003;27;83181;-72
2023/10/06 06:05:04;;;;;;;8.65;7.75;;;23.00;99.90;;;;;;6283730;27;84042;-72
2023/10/06 06:08:08;;;;;;;9.55;8.02;;;23.00;99.90;;;;;;6284279;27;84074;-72
2023/10/06 06:11:10;;;;;;;9.13;8.20;;;23.00;99.90;;;;;;6282981;27;82244;-69
2023/10/06 06:14:14;;;;;;;9.40;8.30;;;23.00;99.90;;;;;;6284514;27;83929;-68
2023/10/06 06:17:16;;;;;;;8.63;7.47;;;23.00;99.90;;;;;;6284112;27;84058;-69
2023/10/06 06:20:21;;;;;;;9.18;7.93;;;23.00;99.90;;;;;;6277755;27;85159;-70
2023/10/06 06:23:24;;;;;;;9.07;8.15;;;23.00;99.90;;;;;;6273754;27;83950;-69
2023/10/06 06:26:26;;;;;;;8.57;7.50;;;23.00;99.90;;;;;;6284175;27;83191;-69
2023/10/06 06:29:29;;;;;;;9.20;7.82;;;23.00;99.90;;;;;;6282823;27;84096;-71
2023/10/06 06:32:31;;;;;;;8.85;7.95;;;23.00;99.90;;;;;;6283247;27;84157;-71
2023/10/06 06:35:35;;;;;;;9.02;8.13;;;23.00;99.90;;;;;;6280201;27;84090;-72
2023/10/06 06:38:39;;;;;;;8.57;7.68;;;23.00;99.90;;;;;;6276852;27;84210;-71
2023/10/06 06:41:41;;;;;;;8.90;8.00;;;23.00;99.90;;;;;;6276280;27;83223;-72
2023/10/06 06:44:47;;;;;;;9.10;7.93;;;23.00;99.90;;;;;;6267329;27;84304;-71
2023/10/06 06:47:52;;;;;;;8.85;7.95;;;23.00;99.90;;;;;;6283546;27;84405;-71
2023/10/06 06:50:57;;;;;;;9.02;8.13;;;23.00;99.90;;;;;;6283362;27;84909;-71
2023/10/06 06:53:59;;;;;;;8.27;7.47;;;23.00;99.90;;;;;;6283213;27;83234;-71
2023/10/06 06:57:02;;;;;;;8.77;7.88;;;23.00;99.90;;;;;;6280414;27;84348;-71
2023/10/06 07:00:14;;;;;;;8.57;7.68;;;23.00;99.90;;;;;;6285541;27;84004;-71
2023/10/06 07:03:16;;;;;;;8.63;7.75;;;23.00;99.90;;;;;;6274415;27;83887;-71
2023/10/06 07:06:18;;;;;;;8.73;7.82;;;23.00;99.90;;;;;;6281962;27;83909;-71
2023/10/06 07:09:20;;;;;;;8.57;7.68;;;23.00;99.90;;;;;;6279277;27;82947;-71
2023/10/06 07:12:23;;;;;;;8.43;7.53;;;23.00;99.90;;;;;;6274387;27;83308;-71
2023/10/06 07:15:29;;;;;;;8.60;7.70;;;23.00;99.90;;;;;;6281271;27;84099;-71
2023/10/06 07:18:31;;;;;;;9.45;7.90;;;23.00;99.90;;;;;;6281761;27;83800;-71
2023/10/06 07:21:32;;;;;;;8.73;7.90;;;23.00;99.90;;;;;;6284871;27;84923;-71
2023/10/06 07:24:34;;;;;;;8.80;7.90;;;23.00;99.90;;;;;;6282689;27;83989;-71
2023/10/06 07:27:36;;;;;;;9.00;8.05;;;23.00;99.90;;;;;;6269856;27;83102;-72
2023/10/06 07:30:42;;;;;;;8.60;7.80;;;23.00;99.90;;;;;;6282897;27;84054;-72
2023/10/06 07:33:44;;;;;;;13.55;8.63;;;23.00;99.90;;;;;;6268810;27;84009;-71
2023/10/06 07:36:46;;;;;;;10.18;7.80;;;23.00;99.90;;;;;;6276649;27;84110;-72
2023/10/06 07:39:48;;;;;;;10.27;8.15;;;23.00;99.90;;;;;;6283299;27;84380;-71
2023/10/06 07:42:52;;;;;;;8.90;7.80;;;23.00;99.90;;;;;;6287932;27;83282;-72
2023/10/06 07:45:55;;;;;;;8.35;7.55;;;23.00;99.90;;;;;;6286972;27;84315;-71
2023/10/06 07:48:57;;;;;;;8.18;7.30;;;23.00;99.90;;;;;;6275393;27;84117;-72
2023/10/06 07:51:59;;;;;;;8.70;7.68;;;23.00;99.90;;;;;;6285045;27;85344;-72
2023/10/06 07:55:04;;;;;;;8.80;7.38;;;23.00;99.90;;;;;;6287867;27;84036;-72
2023/10/06 07:58:08;;;;;;;7.90;7.10;;;23.00;99.90;;;;;;6285409;27;84361;-72
2023/10/06 08:01:12;;;;;;;8.55;7.65;;;23.00;99.90;;;;;;6284338;27;84372;-71
2023/10/06 08:04:14;;;;;;;8.27;7.45;;;23.00;99.90;;;;;;6286862;27;83703;-72
2023/10/06 08:07:16;;;;;;;8.00;7.20;;;23.00;99.90;;;;;;6286007;27;83214;-71
2023/10/06 08:10:18;;;;;;;8.43;7.55;;;23.00;99.90;;;;;;6288731;27;83970;-72
2023/10/06 08:13:20;;;;;;;9.65;7.55;;;23.00;99.90;;;;;;6280547;27;83267;-74
2023/10/06 08:16:26;;;;;;;8.77;7.50;;;23.00;99.90;;;;;;6280303;27;84129;-71
2023/10/06 08:19:28;;;;;;;8.27;7.32;;;23.00;99.90;;;;;;6285699;27;83134;-72
2023/10/06 08:22:33;;;;;;;7.70;6.90;;;23.00;99.90;;;;;;6284924;27;84638;-72
2023/10/06 08:25:36;;;;;;;8.00;7.20;;;23.00;99.90;;;;;;6283303;27;84332;-71
2023/10/06 08:28:38;;;;;;;10.43;7.55;;;23.00;99.90;;;;;;6285882;27;82873;-72
2023/10/06 08:31:42;;;;;;;8.18;6.82;;;23.00;99.90;;;;;;6284156;27;84434;-71
2023/10/06 08:34:46;;;;;;;8.18;7.32;;;23.00;99.90;;;;;;6284880;27;84217;-72
2023/10/06 08:37:51;;;;;;;7.72;6.93;;;22.90;99.90;;;;;;6285815;27;82916;-72
2023/10/06 08:40:58;;;;;;;8.00;7.20;;;23.00;99.90;;;;;;6284052;27;84083;-71
2023/10/06 08:44:03;;;;;;;8.57;7.07;;;22.90;99.90;;;;;;6286832;27;83240;-71
2023/10/06 08:47:10;;;;;;;8.15;7.28;;;22.90;99.90;;;;;;6285963;27;84087;-71
2023/10/06 08:50:13;;;;;;;8.65;7.10;;;23.00;99.90;;;;;;6273977;27;84386;-71
2023/10/06 08:53:17;;;;;;;8.48;7.20;;;22.90;99.90;;;;;;6282814;27;85011;-72
2023/10/06 08:56:19;;;;;;;7.72;6.93;;;22.90;99.90;;;;;;6279470;27;82957;-72
2023/10/06 08:59:21;;;;;;;11.23;7.97;;;22.90;99.90;;;;;;6279625;27;82912;-72
2023/10/06 09:02:25;;;;;;;7.00;6.28;;;23.00;99.90;;;;;;6280386;27;85772;-72
2023/10/06 09:05:28;;;;;;;7.72;6.63;;;22.90;99.90;;;;;;6283261;27;86219;-72
2023/10/06 09:08:40;;;;;;;7.90;6.78;;;22.90;99.90;;;;;;6283592;27;83978;-72
2023/10/06 09:11:42;;;;;;;8.15;6.80;;;23.00;99.90;;;;;;6288361;27;84049;-72
2023/10/06 09:14:54;;;;;;;7.60;6.78;;;22.90;99.90;;;;;;6274917;27;83249;-72
2023/10/06 09:17:58;;;;;;;7.07;6.38;;;22.90;99.90;;;;;;6283171;27;84052;-72
2023/10/06 09:21:12;;;;;;;7.18;6.47;;;22.90;99.90;;;;;;6280494;27;84118;-72
2023/10/06 09:24:19;;;;;;;7.63;6.82;;;22.90;99.90;;;;;;6279392;27;85424;-72
2023/10/06 09:27:25;;;;;;;7.97;6.90;;;22.90;99.90;;;;;;6284316;27;82912;-72
2023/10/06 09:30:27;;;;;;;7.85;6.68;;;22.90;99.90;;;;;;6278852;27;84192;-72
2023/10/06 09:33:42;;;;;;;8.18;6.78;;;23.00;99.90;;;;;;6281595;27;84031;-72
2023/10/06 09:36:44;;;;;;;7.25;6.43;;;22.90;99.90;;;;;;6282702;27;84108;-72
2023/10/06 09:39:57;;;;;;;7.65;6.85;;;22.90;99.90;;;;;;6283996;27;84026;-72
2023/10/06 09:43:00;;;;;;;9.32;7.70;;;22.90;99.90;;;;;;6291242;27;84847;-71
2023/10/06 09:46:09;;;;;;;7.90;6.90;;;22.90;99.90;;;;;;6285776;27;83914;-72
2023/10/06 09:49:16;;;;;;;7.40;6.70;;;23.00;99.90;;;;;;6283944;27;84019;-74
2023/10/06 09:52:21;;;;;;;7.68;6.57;;;23.00;99.90;;;;;;6281692;27;83353;-73
2023/10/06 09:55:25;;;;;;;8.05;7.13;;;23.00;99.90;;;;;;6281455;27;84958;-73
2023/10/06 09:58:27;;;;;;;7.57;6.45;;;23.00;99.90;;;;;;6286861;27;84108;-73
2023/10/06 10:01:31;;;;;;;7.25;6.20;;;23.00;99.90;;;;;;6279447;27;84023;-73
2023/10/06 10:04:35;;;;;;;7.65;6.55;;;23.00;99.90;;;;;;6283826;27;84279;-73
2023/10/06 10:07:38;;;;;;;6.95;6.25;;;23.10;99.90;;;;;;6276158;27;84119;-73
2023/10/06 10:10:44;;;;;;;7.75;6.68;;;23.10;99.90;;;;;;6281041;27;84253;-73
2023/10/06 10:14:18;;;;;;;7.88;6.30;;;23.00;99.90;;;;;;6278546;27;84518;-72
2023/10/06 10:17:29;;;;;;;6.70;6.00;;;23.00;99.90;;;;;;6283798;27;82608;-72
2023/10/06 10:20:33;;;;;;;6.88;6.07;;;23.10;99.90;;;;;;6284449;27;83977;-73
2023/10/06 10:23:39;;;;;;;6.80;6.05;;;23.00;99.90;;;;;;6284247;27;84467;-73
2023/10/06 10:26:47;;;;;;;7.00;6.32;;;23.00;99.90;;;;;;6283196;27;84862;-73
2023/10/06 10:29:49;;;;;;;7.70;6.13;;;23.00;99.90;;;;;;6283676;27;84030;-72
2023/10/06 10:32:54;;;;;;;6.85;6.07;;;23.00;99.90;;;;;;6272520;27;84206;-73
2023/10/06 10:36:23;;;;;;;6.63;5.90;;;23.00;99.90;;;;;;6283893;27;84092;-73
2023/10/06 10:39:25;;;;;;;6.57;5.88;;;23.10;99.90;;;;;;6283449;27;84668;-72
2023/10/06 10:42:39;;;;;;;6.85;6.15;;;23.00;99.90;;;;;;6279972;27;84384;-73
2023/10/06 10:45:44;;;;;;;7.53;6.28;;;23.00;99.90;;;;;;6274360;27;83980;-70
2023/10/06 10:48:48;;;;;;;6.28;5.65;;;23.00;99.90;;;;;;6276486;27;83857;-71
2023/10/06 10:51:55;;;;;;;9.10;6.25;;;23.00;99.90;;;;;;6269473;27;83846;-71
2023/10/06 10:54:57;;;;;;;6.40;5.55;;;23.00;99.90;;;;;;6283773;27;82871;-71
2023/10/06 10:57:59;;;;;;;6.82;6.13;;;23.10;99.90;;;;;;6283118;27;85794;-71
2023/10/06 11:01:23;;;;;;;7.22;6.10;;;23.10;99.90;;;;;;6276037;27;84023;-70
2023/10/06 11:04:31;;;;;;;8.07;5.95;;;23.10;99.90;;;;;;6283630;27;84096;-72
2023/10/06 11:07:35;;;;;;;8.68;6.53;;;23.00;99.90;;;;;;6282481;27;84037;-72
2023/10/06 11:10:38;;;;;;;7.55;6.18;;;23.10;99.90;;;;;;6284807;27;84344;-75
2023/10/06 11:13:58;;;;;;;6.95;5.75;;;23.00;99.90;;;;;;6278751;27;84443;-71
2023/10/06 11:17:02;;;;;;;8.70;5.90;;;23.00;99.90;;;;;;6266222;27;84368;-71
2023/10/06 11:20:12;;;;;;;6.60;5.53;;;23.00;99.90;;;;;;6282461;27;83251;-70
2023/10/06 11:23:15;;;;;;;7.78;5.70;;;23.00;99.90;;;;;;6275464;27;85635;-71
2023/10/06 11:26:27;;;;;;;6.72;5.25;;;23.10;99.90;;;;;;6281978;27;82907;-70
2023/10/06 11:29:31;;;;;;;6.70;5.32;;;23.10;99.90;;;;;;6288902;27;85024;-70
2023/10/06 11:32:33;;;;;;;7.28;5.72;;;23.10;99.90;;;;;;6281617;27;84016;-70
2023/10/06 11:35:36;;;;;;;6.80;5.40;;;23.10;99.90;;;;;;6279101;27;84057;-70
2023/10/06 11:38:40;;;;;;;6.97;5.38;;;23.10;99.90;;;;;;6283738;27;84009;-70
2023/10/06 11:41:43;;;;;;;7.20;5.22;;;23.10;99.90;;;;;;6275407;27;82215;-71
2023/10/06 11:44:45;;;;;;;6.97;5.28;;;23.10;99.90;;;;;;6280447;27;84024;-70
2023/10/06 11:47:48;;;;;;;5.25;4.75;;;23.10;99.90;;;;;;6282796;27;84067;-70
2023/10/06 11:50:50;;;;;;;5.65;5.05;;;23.10;99.90;;;;;;6283092;27;83547;-70
2023/10/06 11:54:00;;;;;;;6.30;5.20;;;23.10;99.90;;;;;;6286791;27;83858;-70
2023/10/06 11:57:03;;;;;;;6.57;5.30;;;23.10;99.90;;;;;;6281458;27;82660;-70
2023/10/06 12:00:10;;;;;;;7.32;5.45;;;23.10;99.90;;;;;;6280485;27;85139;-69
2023/10/06 12:03:12;;;;;;;18.10;6.30;;;23.10;99.90;;;;;;6281170;27;83866;-69
2023/10/06 12:06:14;;;;;;;10.93;6.40;;;23.10;99.90;;;;;;6278698;27;82982;-69
2023/10/06 12:09:29;;;;;;;10.80;5.95;;;23.00;99.90;;;;;;6286250;27;84700;-70
2023/10/06 12:12:31;;;;;;;9.40;5.95;;;23.30;99.90;;;;;;6283330;27;84166;-69
2023/10/06 12:15:33;;;;;;;10.20;5.70;;;23.10;99.90;;;;;;6282442;27;84084;-69
2023/10/06 12:18:35;;;;;;;9.98;5.90;;;23.10;99.90;;;;;;6282425;27;82849;-70
2023/10/06 12:21:37;;;;;;;9.23;5.78;;;23.10;99.90;;;;;;6282940;27;83312;-71
2023/10/06 12:24:40;;;;;;;8.13;5.35;;;23.10;99.90;;;;;;6282391;27;82957;-69
2023/10/06 12:27:43;;;;;;;7.18;5.63;;;23.10;99.90;;;;;;6283962;27;84184;-70
2023/10/06 12:31:13;;;;;;;7.88;5.82;;;23.10;99.90;;;;;;6286288;27;84075;-70
2023/10/06 12:34:15;;;;;;;9.70;5.60;;;23.10;99.90;;;;;;6285779;27;82895;-70
2023/10/06 12:37:17;;;;;;;8.32;5.72;;;23.10;99.90;;;;;;6282445;27;83919;-70
2023/10/06 12:40:21;;;;;;;9.20;5.53;;;23.10;99.90;;;;;;6286500;27;84033;-68
2023/10/06 12:43:23;;;;;;;8.60;5.78;;;23.10;99.90;;;;;;6286131;27;84205;-69
2023/10/06 12:46:25;;;;;;;9.75;6.00;;;23.10;99.90;;;;;;6282191;27;84125;-69
2023/10/06 12:49:27;;;;;;;8.57;5.63;;;23.10;99.90;;;;;;6287596;27;84025;-69
2023/10/06 12:52:31;;;;;;;9.00;5.88;;;23.10;99.90;;;;;;6285365;27;82343;-70
2023/10/06 12:55:34;;;;;;;7.97;5.45;;;23.10;99.90;;;;;;6285524;27;82950;-70
2023/10/06 12:58:36;;;;;;;7.05;5.28;;;23.10;99.90;;;;;;6285825;27;83948;-69
2023/10/06 13:01:39;;;;;;;9.60;5.63;;;23.10;99.90;;;;;;6280646;27;84085;-70
2023/10/06 13:04:41;;;;;;;11.60;6.00;;;23.10;99.90;;;;;;6278441;27;84020;-74
2023/10/06 13:07:46;;;;;;;10.05;6.22;;;23.10;99.90;;;;;;6264971;27;82878;-72
2023/10/06 13:10:49;;;;;;;16.25;7.47;;;23.10;99.90;;;;;;6287957;27;84431;-74
2023/10/06 13:13:51;;;;;;;13.40;7.20;;;23.20;99.90;;;;;;6283108;27;83217;-73
2023/10/06 13:16:53;;;;;;;10.43;6.57;;;23.30;99.90;;;;;;6278155;27;83915;-73
2023/10/06 13:19:55;;;;;;;10.50;6.32;;;23.40;99.90;;;;;;6284915;27;84391;-72
2023/10/06 13:22:57;;;;;;;8.43;6.15;;;23.70;99.90;;;;;;6285602;27;83378;-72
2023/10/06 13:26:01;;;;;;;11.38;6.55;;;24.10;99.90;;;;;;6285593;27;84026;-75
2023/10/06 13:29:03;;;;;;;9.52;6.70;;;24.30;99.90;;;;;;6277098;27;83887;-74
2023/10/06 13:32:07;;;;;;;8.65;6.47;;;24.50;99.90;;;;;;6266472;27;83985;-73
2023/10/06 13:35:15;;;;;;;8.35;6.60;;;24.50;99.90;;;;;;6285261;27;84057;-73
2023/10/06 13:38:19;;;;;;;8.80;6.30;;;24.50;99.90;;;;;;6284385;27;84004;-75
2023/10/06 13:41:23;;;;;;;10.05;6.60;;;24.40;99.90;;;;;;6282543;27;83168;-74
2023/10/06 13:44:25;;;;;;;9.43;6.40;;;24.40;99.90;;;;;;6278096;27;82889;-74
2023/10/06 13:47:28;;;;;;;7.70;6.40;;;24.30;99.90;;;;;;6283395;27;84023;-74
2023/10/06 13:50:30;;;;;;;7.88;5.82;;;24.30;99.90;;;;;;6287395;27;85683;-75
2023/10/06 13:53:33;;;;;;;8.40;6.28;;;24.20;99.90;;;;;;6282713;27;83268;-73
2023/10/06 13:56:36;;;;;;;9.35;6.00;;;24.10;99.90;;;;;;6281144;27;84302;-74
2023/10/06 13:59:42;;;;;;;9.60;6.72;;;24.10;99.90;;;;;;6283331;27;84338;-75
2023/10/06 14:02:44;;;;;;;12.63;7.20;;;24.00;99.90;;;;;;6284938;27;85243;-74
2023/10/06 14:05:51;;;;;;;12.50;6.53;;;23.90;99.90;;;;;;6284660;27;82863;-75
2023/10/06 14:08:53;;;;;;;11.10;6.88;;;23.90;99.90;;;;;;6283819;27;83974;-74
2023/10/06 14:11:57;;;;;;;11.38;6.80;;;23.90;99.90;;;;;;6284025;27;82843;-74
2023/10/06 14:15:13;;;;;;;12.85;7.35;;;23.80;99.90;;;;;;6285293;27;84022;-75
2023/10/06 14:18:17;;;;;;;15.30;7.60;;;23.80;99.90;;;;;;6275344;27;84040;-74
2023/10/06 14:21:19;;;;;;;14.65;7.55;;;23.70;99.90;;;;;;6281864;27;82962;-75
2023/10/06 14:24:21;;;;;;;11.82;7.00;;;23.70;99.90;;;;;;6270628;27;83621;-75
2023/10/06 14:27:24;;;;;;;13.98;7.43;;;23.70;99.90;;;;;;6279157;27;82903;-76
2023/10/06 14:30:28;;;;;;;15.02;7.78;;;23.70;99.90;;;;;;6284973;27;82900;-74
2023/10/06 14:33:38;;;;;;;13.65;7.63;;;23.70;99.90;;;;;;6284301;27;85093;-75
2023/10/06 14:36:43;;;;;;;11.25;7.32;;;23.60;99.90;;;;;;6283935;27;84505;-75
2023/10/06 14:46:36;;;;;;;11.90;7.10;;;23.60;99.90;;;;;;6284224;27;84303;-75
2023/10/06 14:49:42;;;;;;;12.45;6.75;;;23.60;99.90;;;;;;6283146;27;83992;-75
2023/10/06 14:52:44;;;;;;;12.60;7.13;;;23.60;99.90;;;;;;6271540;27;84879;-75
2023/10/06 14:55:47;;;;;;;12.30;6.97;;;23.50;99.90;;;;;;6282403;27;83231;-75
2023/10/06 14:58:51;;;;;;;11.90;6.30;;;23.50;99.90;;;;;;6284897;27;84176;-75
2023/10/06 15:01:53;;;;;;;13.15;6.22;;;23.50;99.90;;;;;;6272607;27;84064;-74
2023/10/06 15:04:55;;;;;;;10.75;7.30;;;23.50;99.90;;;;;;6283108;27;84935;-76
2023/10/06 15:07:57;;;;;;;11.23;6.78;;;23.50;99.90;;;;;;6283321;27;84068;-76
2023/10/06 15:11:00;;;;;;;10.45;6.72;;;23.40;99.90;;;;;;6277777;27;83669;-76
2023/10/06 15:14:04;;;;;;;9.77;6.38;;;23.40;99.90;;;;;;6280512;27;83980;-74
2023/10/06 15:17:09;;;;;;;10.77;6.60;;;23.40;99.90;;;;;;6284336;27;82929;-75
2023/10/06 15:20:13;;;;;;;10.00;6.57;;;23.40;99.90;;;;;;6280913;27;84275;-76
2023/10/06 15:23:15;;;;;;;8.85;6.43;;;23.40;99.90;;;;;;6282872;27;83973;-74
2023/10/06 15:26:18;;;;;;;8.32;6.88;;;23.40;99.90;;;;;;6283682;27;83334;-74
2023/10/06 15:29:21;;;;;;;11.18;6.32;;;23.40;99.90;;;;;;6274876;27;83874;-72
2023/10/06 15:32:24;;;;;;;11.98;6.30;;;23.50;99.90;;;;;;6265553;27;84103;-72
2023/10/06 15:35:35;;;;;;;8.15;6.10;;;23.40;99.90;;;;;;6282880;27;85124;-75
2023/10/06 15:38:37;;;;;;;8.70;5.93;;;23.40;99.90;;;;;;6281796;27;84392;-74
2023/10/06 15:41:39;;;;;;;9.40;6.45;;;23.40;99.90;;;;;;6281980;27;83253;-75
2023/10/06 15:44:43;;;;;;;11.15;6.40;;;23.40;99.90;;;;;;6282348;27;84082;-74
2023/10/06 15:47:45;;;;;;;10.90;6.50;;;23.40;99.90;;;;;;6283077;27;83982;-74
2023/10/06 15:50:47;;;;;;;10.50;6.68;;;23.40;99.90;;;;;;6284291;27;82924;-74
2023/10/06 15:53:50;;;;;;;9.50;6.10;;;23.40;99.90;;;;;;6281803;27;85727;-74
2023/10/06 15:56:52;;;;;;;9.30;6.22;;;23.40;99.90;;;;;;6283661;27;83261;-75
2023/10/06 15:59:59;;;;;;;8.75;5.82;;;23.40;99.90;;;;;;6281969;27;84567;-74
2023/10/06 16:03:02;;;;;;;8.50;5.55;;;23.40;99.90;;;;;;6286921;27;84186;-74
2023/10/06 16:06:05;;;;;;;7.38;5.47;;;23.40;99.90;;;;;;6281216;27;85461;-75